NFTL/HPA METAR and TAF weather

Enter ICAO airport designator
Station Type Date Time Source
NFTL METAR 2022/09/26 06:00 UTC NOAA

NFTL 260600Z 10011KT 9999 FEW016TCU SCT100 OVC270 25/18 Q1013


Station Type Date Time Source
NFTL Decoded METAR 2022/09/26 06:00 UTC NOAA

Haapai, Tonga (NFTL) 19-48S 174-21W 3M
Sep 26, 2022 - 02:00 AM EDT / 2022.09.26 0600 UTC
Wind: from the E (100 degrees) at 13 MPH (11 KT):0
Visibility: greater than 7 mile(s):0
Sky conditions: overcast
Weather: Towering cumulus clouds observed
Temperature: 77 F (25 C)
Dew Point: 64 F (18 C)
Relative Humidity: 65%
Pressure (altimeter): 29.91 in. Hg (1013 hPa)
ob: NFTL 260600Z 10011KT 9999 FEW016TCU SCT100 OVC270 25/18 Q1013
cycle: 6

Station Type Date Time Source
NFTL TAF 2018/02/21 17:36 UTC NOAA

TAF NFTL 211605Z 2117/2208 12010KT 9999 SCT018

Example: see airport list